Time;durP1;ratioP1;P1;durP2;ratioP2;P2;SDS_P1;SDS_P2;PMS_P1;PMS_P2;Temp;Humidity;BMP_temperature;BMP_pressure;BME280_temperature;BME280_humidity;BME280_pressure;Samples;Min_cycle;Max_cycle;Signal;HPM_P1;HPM_P2
2023/03/01 00:01:26;;;;;;;18.55;16.65;;;;;;;;;;5011856;28;20862;-84
2023/03/01 00:03:52;;;;;;;18.02;16.23;;;;;;;;;;5011368;28;20399;-84
2023/03/01 00:06:18;;;;;;;18.50;16.67;;;;;;;;;;4994632;28;20415;-85
2023/03/01 00:08:44;;;;;;;18.05;16.33;;;;;;;;;;5012026;28;20397;-84
2023/03/01 00:11:10;;;;;;;18.45;16.55;;;;;;;;;;5011416;28;20490;-85
2023/03/01 00:13:36;;;;;;;18.60;16.70;;;;;;;;;;5001695;28;20382;-84
2023/03/01 00:16:04;;;;;;;18.90;16.88;;;;;;;;;;5011702;28;20396;-85
2023/03/01 00:18:30;;;;;;;17.83;16.13;;;;;;;;;;5011148;28;20420;-86
2023/03/01 00:20:56;;;;;;;19.08;17.27;;;;;;;;;;5011162;28;20405;-87
2023/03/01 00:23:22;;;;;;;19.00;17.00;;;;;;;;;;5011908;28;20868;-87
2023/03/01 00:25:48;;;;;;;18.47;16.47;;;;;;;;;;4993972;28;20408;-86
2023/03/01 00:28:14;;;;;;;19.73;17.65;;;;;;;;;;5011724;28;20396;-87
2023/03/01 00:30:41;;;;;;;19.38;17.40;;;;;;;;;;5011643;28;20420;-87
2023/03/01 00:33:07;;;;;;;19.00;17.10;;;;;;;;;;5011816;28;20563;-87
2023/03/01 00:35:33;;;;;;;20.10;17.98;;;;;;;;;;5011931;28;20395;-86
2023/03/01 00:38:00;;;;;;;19.25;17.35;;;;;;;;;;5011837;28;20389;-85
2023/03/01 00:40:26;;;;;;;19.48;17.42;;;;;;;;;;5003495;28;20426;-85
2023/03/01 00:42:52;;;;;;;20.40;18.05;;;;;;;;;;4988455;28;20396;-85
2023/03/01 00:45:18;;;;;;;20.35;18.17;;;;;;;;;;5012120;28;20398;-86
2023/03/01 00:47:44;;;;;;;19.95;17.80;;;;;;;;;;5010723;28;20405;-86
2023/03/01 00:50:11;;;;;;;19.10;17.10;;;;;;;;;;5021139;28;20443;-84
2023/03/01 00:52:37;;;;;;;18.98;17.17;;;;;;;;;;5029264;28;20396;-88
2023/03/01 00:55:04;;;;;;;20.27;17.90;;;;;;;;;;5021982;28;20842;-86
2023/03/01 00:57:30;;;;;;;20.48;18.40;;;;;;;;;;5018478;28;20881;-87
2023/03/01 00:59:56;;;;;;;20.15;18.15;;;;;;;;;;5016761;28;20476;-87
2023/03/01 01:02:22;;;;;;;20.73;18.63;;;;;;;;;;4998137;28;20397;-86
2023/03/01 01:04:48;;;;;;;20.25;18.20;;;;;;;;;;5014235;28;20420;-85
2023/03/01 01:07:15;;;;;;;19.95;17.85;;;;;;;;;;5013060;28;20403;-86
2023/03/01 01:09:41;;;;;;;22.15;19.88;;;;;;;;;;5012048;28;20417;-87
2023/03/01 01:12:07;;;;;;;20.50;18.30;;;;;;;;;;5011899;28;20424;-86
2023/03/01 01:14:34;;;;;;;20.67;18.67;;;;;;;;;;5003431;28;20511;-87
2023/03/01 01:17:00;;;;;;;21.83;19.60;;;;;;;;;;5011664;28;20392;-87
2023/03/01 01:19:26;;;;;;;22.17;19.75;;;;;;;;;;5012088;28;20415;-87
2023/03/01 01:21:53;;;;;;;23.80;20.17;;;;;;;;;;5011939;28;20443;-86
2023/03/01 01:24:19;;;;;;;23.20;20.77;;;;;;;;;;5011722;28;20424;-85
2023/03/01 01:26:45;;;;;;;23.30;20.75;;;;;;;;;;4993871;28;20403;-85
2023/03/01 01:29:12;;;;;;;24.08;21.50;;;;;;;;;;5011729;28;20400;-84
2023/03/01 01:31:39;;;;;;;23.80;21.33;;;;;;;;;;5008150;28;20390;-85
2023/03/01 01:34:06;;;;;;;23.60;21.10;;;;;;;;;;5007186;28;20400;-85
2023/03/01 01:36:32;;;;;;;23.13;20.58;;;;;;;;;;5015031;28;20388;-84
2023/03/01 01:38:58;;;;;;;24.42;21.83;;;;;;;;;;5014708;28;20396;-84
2023/03/01 01:41:25;;;;;;;23.35;20.95;;;;;;;;;;5014492;28;20423;-86
2023/03/01 01:44:11;;;;;;;22.70;20.33;;;;;;;;;;5014482;28;20392;-85
2023/03/01 01:46:53;;;;;;;23.52;20.27;;;;;;;;;;4996523;28;20826;-87
2023/03/01 01:49:28;;;;;;;24.65;22.05;;;;;;;;;;5014474;28;20429;-85
2023/03/01 01:52:03;;;;;;;24.73;22.13;;;;;;;;;;5014472;28;20446;-84
2023/03/01 01:54:32;;;;;;;24.70;22.10;;;;;;;;;;5014681;28;20454;-84
2023/03/01 01:57:00;;;;;;;27.20;22.13;;;;;;;;;;5014076;28;20476;-84
2023/03/01 01:59:29;;;;;;;25.45;22.45;;;;;;;;;;5014078;28;20418;-84
2023/03/01 02:01:55;;;;;;;25.88;22.00;;;;;;;;;;5013758;28;20444;-84
2023/03/01 02:04:21;;;;;;;24.45;21.83;;;;;;;;;;5013823;28;20421;-85
2023/03/01 02:06:51;;;;;;;24.67;22.00;;;;;;;;;;5014045;28;20486;-84
2023/03/01 02:09:19;;;;;;;26.30;22.30;;;;;;;;;;5012973;28;20433;-86
2023/03/01 02:11:45;;;;;;;26.83;22.52;;;;;;;;;;5008508;28;20429;-87
2023/03/01 02:14:11;;;;;;;24.63;22.02;;;;;;;;;;5005638;28;20380;-86
2023/03/01 02:16:37;;;;;;;24.13;21.53;;;;;;;;;;5013986;28;20396;-85
2023/03/01 02:19:05;;;;;;;25.67;22.98;;;;;;;;;;5014061;28;20393;-87
2023/03/01 02:21:31;;;;;;;25.17;22.45;;;;;;;;;;5014147;28;20397;-87
2023/03/01 02:23:57;;;;;;;24.63;22.05;;;;;;;;;;5013482;28;20854;-85
2023/03/01 02:26:41;;;;;;;24.42;21.83;;;;;;;;;;5013494;28;20389;-86
2023/03/01 02:29:07;;;;;;;26.27;22.98;;;;;;;;;;5009503;28;20382;-86
2023/03/01 02:31:43;;;;;;;25.50;22.52;;;;;;;;;;5012498;28;20417;-87
2023/03/01 02:34:10;;;;;;;26.50;22.80;;;;;;;;;;5001801;28;20461;-86
2023/03/01 02:36:39;;;;;;;24.35;21.55;;;;;;;;;;4998389;28;20412;-85
2023/03/01 02:39:14;;;;;;;24.92;22.23;;;;;;;;;;4977465;28;20733;-86
2023/03/01 02:41:41;;;;;;;26.88;23.02;;;;;;;;;;5010215;28;21219;-87
2023/03/01 02:44:08;;;;;;;27.50;23.15;;;;;;;;;;5007282;28;20417;-85
2023/03/01 02:46:34;;;;;;;25.67;22.95;;;;;;;;;;4996824;28;20959;-86
2023/03/01 02:49:00;;;;;;;25.93;22.17;;;;;;;;;;4996810;28;20486;-86
2023/03/01 02:51:26;;;;;;;26.33;23.48;;;;;;;;;;4998486;28;20979;-86
2023/03/01 02:53:55;;;;;;;26.80;23.53;;;;;;;;;;4994059;28;20403;-85
2023/03/01 02:56:21;;;;;;;26.05;23.23;;;;;;;;;;4995084;28;20382;-86
2023/03/01 02:58:51;;;;;;;27.05;23.65;;;;;;;;;;4995989;28;20446;-86
2023/03/01 03:01:17;;;;;;;27.85;23.95;;;;;;;;;;4992871;28;20409;-85
2023/03/01 03:03:43;;;;;;;27.25;23.60;;;;;;;;;;4994432;28;20412;-86
2023/03/01 03:06:09;;;;;;;27.77;23.80;;;;;;;;;;4995954;28;20395;-86
2023/03/01 03:08:35;;;;;;;27.13;23.73;;;;;;;;;;4995731;28;20449;-85
2023/03/01 03:11:01;;;;;;;27.75;23.42;;;;;;;;;;4998234;28;20414;-86
2023/03/01 03:13:28;;;;;;;27.45;23.48;;;;;;;;;;4997242;28;20449;-85
2023/03/01 03:15:55;;;;;;;27.80;24.05;;;;;;;;;;4996812;28;20380;-85
2023/03/01 03:18:22;;;;;;;26.83;23.93;;;;;;;;;;4996579;28;20743;-86
2023/03/01 03:20:52;;;;;;;27.03;23.43;;;;;;;;;;5000729;28;20884;-85
2023/03/01 03:23:18;;;;;;;26.70;23.10;;;;;;;;;;4996466;28;20479;-84
2023/03/01 03:25:45;;;;;;;29.80;23.90;;;;;;;;;;4995289;28;20864;-84
2023/03/01 03:28:10;;;;;;;26.25;22.80;;;;;;;;;;4994980;28;20855;-87
2023/03/01 03:30:38;;;;;;;29.83;23.73;;;;;;;;;;4992087;28;20433;-86
2023/03/01 03:33:05;;;;;;;26.07;23.20;;;;;;;;;;4996874;28;20395;-86
2023/03/01 03:35:32;;;;;;;26.70;22.80;;;;;;;;;;4998356;28;20400;-85
2023/03/01 03:38:15;;;;;;;27.92;23.30;;;;;;;;;;4994602;28;20448;-85
2023/03/01 03:40:42;;;;;;;25.67;22.30;;;;;;;;;;4992041;28;20485;-86
2023/03/01 03:43:09;;;;;;;25.52;22.15;;;;;;;;;;4993225;28;20405;-84
2023/03/01 03:45:35;;;;;;;28.80;23.00;;;;;;;;;;4991871;28;20441;-85
2023/03/01 03:48:02;;;;;;;26.57;22.93;;;;;;;;;;4994614;28;20462;-86
2023/03/01 03:50:28;;;;;;;27.58;23.17;;;;;;;;;;4993808;28;20428;-88
2023/03/01 03:52:54;;;;;;;30.33;24.15;;;;;;;;;;4982179;28;20401;-86
2023/03/01 03:55:20;;;;;;;28.73;23.60;;;;;;;;;;4996857;28;20401;-86
2023/03/01 03:57:53;;;;;;;28.17;23.55;;;;;;;;;;4999962;28;20414;-86
2023/03/01 04:00:20;;;;;;;29.52;24.23;;;;;;;;;;4998999;28;20887;-86
2023/03/01 04:02:47;;;;;;;27.80;23.20;;;;;;;;;;5006532;28;20399;-86
2023/03/01 04:05:14;;;;;;;29.00;24.00;;;;;;;;;;5013111;28;20407;-87
2023/03/01 04:07:40;;;;;;;28.73;23.70;;;;;;;;;;5008144;28;20403;-85
2023/03/01 04:10:07;;;;;;;27.83;23.63;;;;;;;;;;5004357;28;20422;-88
2023/03/01 04:12:34;;;;;;;27.83;23.40;;;;;;;;;;5014485;28;20457;-85
2023/03/01 04:15:01;;;;;;;26.40;23.27;;;;;;;;;;5006621;28;20389;-88
2023/03/01 04:17:27;;;;;;;27.88;23.33;;;;;;;;;;4998154;28;20489;-86
2023/03/01 04:19:53;;;;;;;26.70;23.10;;;;;;;;;;4984390;28;20952;-85
2023/03/01 04:22:19;;;;;;;27.80;23.70;;;;;;;;;;5000851;28;20426;-85
2023/03/01 04:24:45;;;;;;;28.13;23.40;;;;;;;;;;4994388;28;20406;-86
2023/03/01 04:27:11;;;;;;;28.20;23.60;;;;;;;;;;4978259;28;20404;-85
2023/03/01 04:29:37;;;;;;;27.85;23.73;;;;;;;;;;5011865;28;20411;-85
2023/03/01 04:32:04;;;;;;;28.67;23.55;;;;;;;;;;5012053;28;20405;-85
2023/03/01 04:34:32;;;;;;;29.65;24.10;;;;;;;;;;5010993;28;20435;-86
2023/03/01 04:36:58;;;;;;;28.92;23.83;;;;;;;;;;5008045;28;20393;-85
2023/03/01 04:39:24;;;;;;;30.60;23.90;;;;;;;;;;5011691;28;21144;-86
2023/03/01 04:41:50;;;;;;;27.23;23.13;;;;;;;;;;5011572;28;20439;-85
2023/03/01 04:44:16;;;;;;;27.05;23.27;;;;;;;;;;5011574;28;20428;-84
2023/03/01 04:46:42;;;;;;;28.83;23.97;;;;;;;;;;5011927;28;20393;-85
2023/03/01 04:49:08;;;;;;;29.67;23.65;;;;;;;;;;5011711;28;20389;-85
2023/03/01 04:51:34;;;;;;;29.52;23.30;;;;;;;;;;5011507;28;20397;-85
2023/03/01 04:54:00;;;;;;;30.17;24.15;;;;;;;;;;5011743;28;20392;-84
2023/03/01 04:56:26;;;;;;;29.15;23.73;;;;;;;;;;5010948;28;20396;-84
2023/03/01 04:58:54;;;;;;;29.00;24.05;;;;;;;;;;5011792;28;20381;-85
2023/03/01 05:01:21;;;;;;;28.30;23.92;;;;;;;;;;5011538;28;20754;-86
2023/03/01 05:03:48;;;;;;;28.20;23.27;;;;;;;;;;5014626;28;20383;-85
2023/03/01 05:06:14;;;;;;;29.23;24.23;;;;;;;;;;5013393;28;20513;-84
2023/03/01 05:08:40;;;;;;;28.58;24.23;;;;;;;;;;5009465;28;20383;-84
2023/03/01 05:11:08;;;;;;;28.73;24.30;;;;;;;;;;5001233;28;20426;-85
2023/03/01 05:13:35;;;;;;;28.08;23.25;;;;;;;;;;4995345;28;20407;-84
2023/03/01 05:16:02;;;;;;;27.55;23.90;;;;;;;;;;4996317;28;20826;-84
2023/03/01 05:18:30;;;;;;;28.50;23.65;;;;;;;;;;5003910;28;20394;-84
2023/03/01 05:20:58;;;;;;;30.42;23.95;;;;;;;;;;5005407;28;20468;-84
2023/03/01 05:23:24;;;;;;;31.17;24.13;;;;;;;;;;5015054;28;20385;-84
2023/03/01 05:25:52;;;;;;;29.43;23.83;;;;;;;;;;4997190;28;21015;-84
2023/03/01 05:28:19;;;;;;;30.52;24.38;;;;;;;;;;5014956;28;20388;-83
2023/03/01 05:30:45;;;;;;;33.58;25.58;;;;;;;;;;5014208;28;20892;-84
2023/03/01 05:33:13;;;;;;;36.17;27.65;;;;;;;;;;5014340;28;20393;-83
2023/03/01 05:35:40;;;;;;;58.05;34.85;;;;;;;;;;5016449;28;20408;-84
2023/03/01 05:38:06;;;;;;;31.88;25.55;;;;;;;;;;5014593;28;20404;-84
2023/03/01 05:40:33;;;;;;;47.13;32.42;;;;;;;;;;5013226;28;20421;-83
2023/03/01 05:42:59;;;;;;;113.22;56.15;;;;;;;;;;4984185;28;20385;-83
2023/03/01 05:45:26;;;;;;;34.08;27.00;;;;;;;;;;5014326;28;20449;-83
2023/03/01 05:47:52;;;;;;;32.83;25.50;;;;;;;;;;5014372;28;20743;-83
2023/03/01 05:50:45;;;;;;;32.67;26.75;;;;;;;;;;5014389;28;20420;-83
2023/03/01 05:53:14;;;;;;;36.00;28.83;;;;;;;;;;5011759;28;20481;-84
2023/03/01 05:55:40;;;;;;;34.23;27.10;;;;;;;;;;5013991;28;20429;-83
2023/03/01 05:58:08;;;;;;;32.25;26.98;;;;;;;;;;5013922;28;20374;-83
2023/03/01 06:00:34;;;;;;;30.02;25.33;;;;;;;;;;5008694;28;20416;-83
2023/03/01 06:03:01;;;;;;;32.15;25.30;;;;;;;;;;4995371;28;20398;-83
2023/03/01 06:05:27;;;;;;;31.75;25.23;;;;;;;;;;4994067;28;20466;-83
2023/03/01 06:07:53;;;;;;;33.40;26.73;;;;;;;;;;5010030;28;20385;-83
2023/03/01 06:10:21;;;;;;;34.28;24.88;;;;;;;;;;5007275;28;20420;-83
2023/03/01 06:12:46;;;;;;;32.30;25.50;;;;;;;;;;4999611;28;20401;-83
2023/03/01 06:15:13;;;;;;;32.28;24.75;;;;;;;;;;5013696;28;20389;-83
2023/03/01 06:17:40;;;;;;;31.48;25.10;;;;;;;;;;5014049;28;20711;-82
2023/03/01 06:20:08;;;;;;;33.27;24.87;;;;;;;;;;5009532;28;20953;-83
2023/03/01 06:22:34;;;;;;;32.22;25.77;;;;;;;;;;5002635;28;20472;-83
2023/03/01 06:25:00;;;;;;;30.23;24.63;;;;;;;;;;5012996;28;20444;-83
2023/03/01 06:27:26;;;;;;;33.95;25.58;;;;;;;;;;5013413;28;20404;-82
2023/03/01 06:29:52;;;;;;;31.42;25.13;;;;;;;;;;5013372;28;20425;-83
2023/03/01 06:32:18;;;;;;;31.25;24.95;;;;;;;;;;4998735;28;20381;-83
2023/03/01 06:34:44;;;;;;;31.80;25.40;;;;;;;;;;4995669;28;20403;-82
2023/03/01 06:37:10;;;;;;;32.13;25.02;;;;;;;;;;5013327;28;20516;-83
2023/03/01 06:39:36;;;;;;;32.65;25.42;;;;;;;;;;5013098;28;20464;-83
2023/03/01 06:42:03;;;;;;;31.50;25.20;;;;;;;;;;5009879;28;20496;-83
2023/03/01 06:44:29;;;;;;;30.25;23.67;;;;;;;;;;4998715;28;20386;-83
2023/03/01 06:46:55;;;;;;;31.60;25.67;;;;;;;;;;4996652;28;20402;-83
2023/03/01 06:49:21;;;;;;;33.47;25.20;;;;;;;;;;4994894;28;20742;-83
2023/03/01 06:51:47;;;;;;;30.10;24.45;;;;;;;;;;4992378;28;20399;-83
2023/03/01 06:54:13;;;;;;;32.33;25.75;;;;;;;;;;5008650;28;20421;-82
2023/03/01 06:56:39;;;;;;;28.65;24.17;;;;;;;;;;5012927;28;20388;-82
2023/03/01 06:59:05;;;;;;;30.60;25.30;;;;;;;;;;5012910;28;20381;-83
2023/03/01 07:01:32;;;;;;;31.40;24.80;;;;;;;;;;4997006;28;20387;-83
2023/03/01 07:03:57;;;;;;;31.85;25.45;;;;;;;;;;5004799;28;20463;-82
2023/03/01 07:06:24;;;;;;;31.17;25.35;;;;;;;;;;5009427;28;20864;-82
2023/03/01 07:08:50;;;;;;;31.73;25.42;;;;;;;;;;5005834;28;20394;-83
2023/03/01 07:11:16;;;;;;;30.05;24.42;;;;;;;;;;4994965;28;20472;-90
2023/03/01 07:13:42;;;;;;;30.20;25.42;;;;;;;;;;5004317;28;20928;-90
2023/03/01 07:16:08;;;;;;;31.13;24.33;;;;;;;;;;5003036;28;20740;-85
2023/03/01 07:18:34;;;;;;;32.22;25.38;;;;;;;;;;5004367;28;20449;-86
2023/03/01 07:21:11;;;;;;;33.13;25.73;;;;;;;;;;4991031;28;20389;-82
2023/03/01 07:23:37;;;;;;;30.00;24.45;;;;;;;;;;5012599;28;25208;-85
2023/03/01 07:26:03;;;;;;;28.50;24.67;;;;;;;;;;5020060;28;20396;-85
2023/03/01 07:28:30;;;;;;;32.83;25.77;;;;;;;;;;5021922;28;20393;-85
2023/03/01 07:31:00;;;;;;;30.33;24.05;;;;;;;;;;5021346;28;20439;-84
2023/03/01 07:33:26;;;;;;;27.65;24.40;;;;;;;;;;5022841;28;20490;-84
2023/03/01 07:35:56;;;;;;;30.70;24.08;;;;;;;;;;5021361;28;20782;-88
2023/03/01 07:38:22;;;;;;;29.83;23.70;;;;;;;;;;5018784;28;20379;-88
2023/03/01 07:40:48;;;;;;;29.40;24.73;;;;;;;;;;5014744;28;20392;-83
2023/03/01 07:43:14;;;;;;;31.02;24.35;;;;;;;;;;5013577;28;20400;-85
2023/03/01 07:45:40;;;;;;;32.90;25.40;;;;;;;;;;5013076;28;20385;-85
2023/03/01 07:48:06;;;;;;;28.38;23.58;;;;;;;;;;5012522;28;20866;-85
2023/03/01 07:50:32;;;;;;;98.05;44.97;;;;;;;;;;5012527;28;20412;-88
2023/03/01 07:52:58;;;;;;;48.23;29.53;;;;;;;;;;5013017;28;20388;-89
2023/03/01 07:55:24;;;;;;;46.22;29.70;;;;;;;;;;5012427;28;20392;-84
2023/03/01 07:57:50;;;;;;;32.58;24.67;;;;;;;;;;5012098;28;20385;-85
2023/03/01 08:00:16;;;;;;;39.40;26.67;;;;;;;;;;5012182;28;20419;-84
2023/03/01 08:02:42;;;;;;;54.63;39.55;;;;;;;;;;5012014;28;20380;-83
2023/03/01 08:05:09;;;;;;;33.28;27.98;;;;;;;;;;5012205;28;20519;-85
2023/03/01 08:07:35;;;;;;;33.37;28.03;;;;;;;;;;4994355;28;20392;-85
2023/03/01 08:10:02;;;;;;;29.20;25.15;;;;;;;;;;5011379;28;20412;-89
2023/03/01 08:12:28;;;;;;;27.52;23.33;;;;;;;;;;5005588;28;20397;-86
2023/03/01 08:14:54;;;;;;;27.75;23.45;;;;;;;;;;5006882;28;20380;-90
2023/03/01 08:17:20;;;;;;;28.40;23.98;;;;;;;;;;4998858;28;20387;-90
2023/03/01 08:19:46;;;;;;;31.57;24.07;;;;;;;;;;5007798;28;20388;-92
2023/03/01 08:22:12;;;;;;;28.42;23.58;;;;;;;;;;5011939;28;20716;-91
2023/03/01 08:24:38;;;;;;;31.77;24.08;;;;;;;;;;5012367;28;20866;-92
2023/03/01 08:27:04;;;;;;;28.20;23.63;;;;;;;;;;4982668;28;20474;-89
2023/03/01 08:29:34;;;;;;;27.80;23.45;;;;;;;;;;4982307;28;20393;-83
2023/03/01 08:32:00;;;;;;;26.35;22.38;;;;;;;;;;5011734;28;20456;-84
2023/03/01 08:34:26;;;;;;;27.95;23.33;;;;;;;;;;5011906;28;20384;-84
2023/03/01 08:36:52;;;;;;;27.98;23.50;;;;;;;;;;5011794;28;20866;-83
2023/03/01 08:39:19;;;;;;;28.98;23.77;;;;;;;;;;5008010;28;20389;-83
2023/03/01 08:41:46;;;;;;;31.63;23.63;;;;;;;;;;5014083;28;20384;-84
2023/03/01 08:44:12;;;;;;;27.15;22.85;;;;;;;;;;5013049;28;20380;-83
2023/03/01 08:46:40;;;;;;;26.40;22.90;;;;;;;;;;5015429;28;20419;-84
2023/03/01 08:49:16;;;;;;;25.58;22.65;;;;;;;;;;5015378;28;20462;-84
2023/03/01 08:51:43;;;;;;;25.98;22.15;;;;;;;;;;5009029;28;20454;-84
2023/03/01 08:54:14;;;;;;;28.27;24.10;;;;;;;;;;4999928;28;20389;-83
2023/03/01 08:56:40;;;;;;;27.63;24.00;;;;;;;;;;5015377;28;20412;-83
2023/03/01 08:59:06;;;;;;;26.90;22.38;;;;;;;;;;4997342;28;20743;-83
2023/03/01 09:01:32;;;;;;;25.42;21.92;;;;;;;;;;5014144;28;20381;-84
2023/03/01 09:03:58;;;;;;;25.65;22.88;;;;;;;;;;5014898;28;20387;-84
2023/03/01 09:06:24;;;;;;;30.13;24.45;;;;;;;;;;5015348;28;20376;-84
2023/03/01 09:08:51;;;;;;;28.98;23.30;;;;;;;;;;5015448;28;20381;-83
2023/03/01 09:11:18;;;;;;;27.10;23.02;;;;;;;;;;5015167;28;20413;-83
2023/03/01 09:13:45;;;;;;;30.08;24.13;;;;;;;;;;5006239;28;20395;-83
2023/03/01 09:16:12;;;;;;;29.53;23.43;;;;;;;;;;4997072;28;20472;-83
2023/03/01 09:18:38;;;;;;;26.77;23.87;;;;;;;;;;5014955;28;20470;-84
2023/03/01 09:21:12;;;;;;;30.50;24.65;;;;;;;;;;4997133;28;20904;-83
2023/03/01 09:23:40;;;;;;;29.92;24.77;;;;;;;;;;5014849;28;20456;-83
2023/03/01 09:26:06;;;;;;;29.23;24.90;;;;;;;;;;4996845;28;20506;-83
2023/03/01 09:28:32;;;;;;;28.35;24.83;;;;;;;;;;5014863;28;20491;-84
2023/03/01 09:30:59;;;;;;;28.55;23.85;;;;;;;;;;4997071;28;20976;-83
2023/03/01 09:33:25;;;;;;;29.38;24.08;;;;;;;;;;5014837;28;20436;-83
2023/03/01 09:35:56;;;;;;;29.20;24.37;;;;;;;;;;5014309;28;20451;-83
2023/03/01 09:38:22;;;;;;;29.75;24.90;;;;;;;;;;5014404;28;20381;-84
2023/03/01 09:40:49;;;;;;;30.95;25.23;;;;;;;;;;5016647;28;20735;-84
2023/03/01 09:43:34;;;;;;;29.27;24.38;;;;;;;;;;4998523;28;20816;-84
2023/03/01 09:46:04;;;;;;;30.30;25.65;;;;;;;;;;5014336;28;20430;-83
2023/03/01 09:48:33;;;;;;;29.42;24.30;;;;;;;;;;5014395;28;20415;-84
2023/03/01 09:51:03;;;;;;;32.35;25.33;;;;;;;;;;5013647;28;20424;-83
2023/03/01 09:53:34;;;;;;;31.70;25.30;;;;;;;;;;5014462;28;20417;-83
2023/03/01 09:56:05;;;;;;;30.23;25.02;;;;;;;;;;5014502;28;20416;-83
2023/03/01 09:58:52;;;;;;;29.93;24.83;;;;;;;;;;5014436;28;20411;-83
2023/03/01 10:01:37;;;;;;;32.55;25.58;;;;;;;;;;5013863;28;20441;-83
2023/03/01 10:04:13;;;;;;;32.72;26.35;;;;;;;;;;5013808;28;25134;-84
2023/03/01 10:06:40;;;;;;;31.67;25.65;;;;;;;;;;5010896;28;20868;-84
2023/03/01 10:09:11;;;;;;;30.60;25.95;;;;;;;;;;4996504;28;20391;-83
2023/03/01 10:11:38;;;;;;;34.22;27.52;;;;;;;;;;5013962;28;20420;-84
2023/03/01 10:14:07;;;;;;;36.20;29.02;;;;;;;;;;4999637;28;20694;-84
2023/03/01 10:16:54;;;;;;;30.48;25.73;;;;;;;;;;5006379;28;20449;-84
2023/03/01 10:19:29;;;;;;;28.58;24.35;;;;;;;;;;5011997;28;20424;-83
2023/03/01 10:21:58;;;;;;;35.67;29.83;;;;;;;;;;5013325;28;20720;-84
2023/03/01 10:24:24;;;;;;;29.50;25.00;;;;;;;;;;4983752;28;20464;-83
2023/03/01 10:26:58;;;;;;;31.20;24.30;;;;;;;;;;5013736;28;20421;-83
2023/03/01 10:29:27;;;;;;;48.92;36.80;;;;;;;;;;5013600;28;20389;-84
2023/03/01 10:31:54;;;;;;;33.23;26.43;;;;;;;;;;5013078;28;20911;-84
2023/03/01 10:34:22;;;;;;;30.92;25.83;;;;;;;;;;4995297;28;20814;-84
2023/03/01 10:36:49;;;;;;;44.83;33.17;;;;;;;;;;5010990;28;20875;-83
2023/03/01 10:39:17;;;;;;;58.63;39.83;;;;;;;;;;5013050;28;20397;-84
2023/03/01 10:41:52;;;;;;;52.95;36.28;;;;;;;;;;5012882;28;20734;-84
2023/03/01 10:44:36;;;;;;;34.65;27.58;;;;;;;;;;5013104;28;20385;-84
2023/03/01 10:47:02;;;;;;;32.97;26.13;;;;;;;;;;5009634;28;20407;-84
2023/03/01 10:49:28;;;;;;;34.20;27.65;;;;;;;;;;5005672;28;20406;-84
2023/03/01 10:51:54;;;;;;;37.53;29.00;;;;;;;;;;4999905;28;20394;-83
2023/03/01 10:54:22;;;;;;;29.23;24.33;;;;;;;;;;4999446;28;20383;-84
2023/03/01 10:56:56;;;;;;;29.70;24.63;;;;;;;;;;5003005;28;20390;-84
2023/03/01 10:59:27;;;;;;;28.80;24.20;;;;;;;;;;5009484;28;20404;-83
2023/03/01 11:02:12;;;;;;;27.35;23.38;;;;;;;;;;5016484;28;20443;-84
2023/03/01 11:04:38;;;;;;;31.30;24.20;;;;;;;;;;4988022;28;20407;-84
2023/03/01 11:07:04;;;;;;;28.23;23.40;;;;;;;;;;5014824;28;20480;-84
2023/03/01 11:09:40;;;;;;;29.63;23.70;;;;;;;;;;5013230;28;20459;-83
2023/03/01 11:12:14;;;;;;;28.45;24.00;;;;;;;;;;5013092;28;20474;-84
2023/03/01 11:14:46;;;;;;;28.75;23.98;;;;;;;;;;5013319;28;20410;-84
2023/03/01 11:17:22;;;;;;;28.50;23.50;;;;;;;;;;5013157;28;20726;-84
2023/03/01 11:20:21;;;;;;;29.80;23.83;;;;;;;;;;5012676;28;20919;-84
2023/03/01 11:22:52;;;;;;;25.47;22.70;;;;;;;;;;4963240;28;20428;-83
2023/03/01 11:25:20;;;;;;;27.80;23.48;;;;;;;;;;5012641;28;20408;-84
2023/03/01 11:27:46;;;;;;;28.10;23.55;;;;;;;;;;5012236;28;20470;-84
2023/03/01 11:30:20;;;;;;;26.48;22.80;;;;;;;;;;5012606;28;20411;-83
2023/03/01 11:33:01;;;;;;;27.77;23.58;;;;;;;;;;5012751;28;20387;-84
2023/03/01 11:35:29;;;;;;;29.27;24.30;;;;;;;;;;5012241;28;20403;-84
2023/03/01 11:38:00;;;;;;;28.90;23.95;;;;;;;;;;5012328;28;20870;-82
2023/03/01 11:40:30;;;;;;;29.95;25.20;;;;;;;;;;4995832;28;20409;-81
2023/03/01 11:43:15;;;;;;;28.65;24.52;;;;;;;;;;4985605;28;20453;-81
2023/03/01 11:45:59;;;;;;;27.20;24.17;;;;;;;;;;4989995;28;20455;-81
2023/03/01 11:48:25;;;;;;;30.85;25.40;;;;;;;;;;4999073;28;20439;-81
2023/03/01 11:50:52;;;;;;;30.08;24.67;;;;;;;;;;5012329;28;20424;-81
2023/03/01 11:53:20;;;;;;;59.88;43.10;;;;;;;;;;5012347;28;20423;-81
2023/03/01 11:56:13;;;;;;;29.75;24.80;;;;;;;;;;5011615;28;20909;-81
2023/03/01 11:58:42;;;;;;;27.30;23.77;;;;;;;;;;4965786;28;20789;-80
2023/03/01 12:01:27;;;;;;;25.98;23.20;;;;;;;;;;4992364;28;20402;-80
2023/03/01 12:03:56;;;;;;;28.92;23.42;;;;;;;;;;4992383;28;20470;-79
2023/03/01 12:06:45;;;;;;;31.58;25.02;;;;;;;;;;4992556;28;20507;-80
2023/03/01 12:09:26;;;;;;;29.60;23.85;;;;;;;;;;4994936;28;20575;-81
2023/03/01 12:12:03;;;;;;;27.58;23.90;;;;;;;;;;4998735;28;20462;-80
2023/03/01 12:14:52;;;;;;;27.05;23.85;;;;;;;;;;5004292;28;20413;-81
2023/03/01 12:17:21;;;;;;;28.38;24.55;;;;;;;;;;4972617;28;20495;-81
2023/03/01 12:19:47;;;;;;;30.48;25.13;;;;;;;;;;5000629;28;20414;-81
2023/03/01 12:22:21;;;;;;;29.38;25.08;;;;;;;;;;5001333;28;20842;-81
2023/03/01 12:24:50;;;;;;;30.50;24.75;;;;;;;;;;4996080;28;20417;-81
2023/03/01 12:27:18;;;;;;;27.00;23.77;;;;;;;;;;5002705;28;20412;-81
2023/03/01 12:29:54;;;;;;;26.75;23.67;;;;;;;;;;5003213;28;20380;-82
2023/03/01 12:32:26;;;;;;;28.10;24.00;;;;;;;;;;4994461;28;20451;-82
2023/03/01 12:35:04;;;;;;;27.02;23.52;;;;;;;;;;4992327;28;20459;-82
2023/03/01 12:37:33;;;;;;;28.05;23.48;;;;;;;;;;5000180;28;20436;-81
2023/03/01 12:40:18;;;;;;;27.20;23.85;;;;;;;;;;4995385;28;20479;-82
2023/03/01 12:43:02;;;;;;;28.50;24.35;;;;;;;;;;4992568;28;20902;-81
2023/03/01 12:45:28;;;;;;;29.50;24.17;;;;;;;;;;4992257;28;20910;-82
2023/03/01 12:48:10;;;;;;;29.10;23.33;;;;;;;;;;4991977;28;20603;-83
2023/03/01 12:50:40;;;;;;;30.70;24.33;;;;;;;;;;4992078;28;20575;-83
2023/03/01 12:53:13;;;;;;;26.37;23.53;;;;;;;;;;4994170;28;20390;-82
2023/03/01 12:55:41;;;;;;;28.23;23.55;;;;;;;;;;4996873;28;20383;-82
2023/03/01 12:58:09;;;;;;;28.52;23.50;;;;;;;;;;4974573;28;20405;-82
2023/03/01 13:00:41;;;;;;;27.03;23.07;;;;;;;;;;4991616;28;20572;-83
2023/03/01 13:03:33;;;;;;;27.77;23.80;;;;;;;;;;4990614;28;20544;-82
2023/03/01 13:06:11;;;;;;;28.08;23.13;;;;;;;;;;4994401;28;20429;-82
2023/03/01 13:08:37;;;;;;;31.30;23.80;;;;;;;;;;5011358;28;20467;-82
2023/03/01 13:11:04;;;;;;;27.17;22.65;;;;;;;;;;5010984;28;20430;-82
2023/03/01 13:13:31;;;;;;;30.10;23.90;;;;;;;;;;4998274;28;20396;-82
2023/03/01 13:15:57;;;;;;;26.95;23.38;;;;;;;;;;4996648;28;20392;-82
2023/03/01 13:18:25;;;;;;;28.50;24.10;;;;;;;;;;4993642;28;20452;-82
2023/03/01 13:20:51;;;;;;;29.08;23.52;;;;;;;;;;4993690;28;20394;-83
2023/03/01 13:23:20;;;;;;;32.55;24.58;;;;;;;;;;4992335;28;20401;-83
2023/03/01 13:26:05;;;;;;;28.20;23.13;;;;;;;;;;4992590;28;20943;-83
2023/03/01 13:28:46;;;;;;;28.40;22.90;;;;;;;;;;4994739;28;20461;-82
2023/03/01 13:31:13;;;;;;;27.77;24.10;;;;;;;;;;4993994;28;20430;-82
2023/03/01 13:33:42;;;;;;;30.27;23.48;;;;;;;;;;4996776;28;20421;-82
2023/03/01 13:36:08;;;;;;;28.23;23.13;;;;;;;;;;5001823;28;20383;-83
2023/03/01 13:38:44;;;;;;;29.38;23.63;;;;;;;;;;4995599;28;20468;-83
2023/03/01 13:41:10;;;;;;;27.05;22.48;;;;;;;;;;5011844;28;20401;-83
2023/03/01 13:43:38;;;;;;;24.52;21.75;;;;;;;;;;5014763;28;20416;-83
2023/03/01 13:46:33;;;;;;;27.87;22.63;;;;;;;;;;5014165;28;20480;-83
2023/03/01 13:48:59;;;;;;;26.77;22.20;;;;;;;;;;5001405;28;20462;-83
2023/03/01 13:51:26;;;;;;;25.00;22.10;;;;;;;;;;5014063;28;20425;-83
2023/03/01 13:53:53;;;;;;;26.00;22.25;;;;;;;;;;4996499;28;20938;-83
2023/03/01 13:56:25;;;;;;;25.20;21.67;;;;;;;;;;4996385;28;20775;-84
2023/03/01 13:58:54;;;;;;;26.63;22.53;;;;;;;;;;5014336;28;20418;-82
2023/03/01 14:01:22;;;;;;;25.67;22.15;;;;;;;;;;5014018;28;20426;-82
2023/03/01 14:03:48;;;;;;;25.75;21.90;;;;;;;;;;5010948;28;20411;-82
2023/03/01 14:06:17;;;;;;;25.67;21.48;;;;;;;;;;4996345;28;20498;-82
2023/03/01 14:08:44;;;;;;;24.95;21.77;;;;;;;;;;5013949;28;20389;-82
2023/03/01 14:11:28;;;;;;;26.73;22.15;;;;;;;;;;5013829;28;20425;-81
2023/03/01 14:14:13;;;;;;;25.73;21.30;;;;;;;;;;5014597;28;20390;-82
2023/03/01 14:17:05;;;;;;;25.70;21.90;;;;;;;;;;5006537;28;20899;-81
2023/03/01 14:19:31;;;;;;;23.52;20.60;;;;;;;;;;5006998;28;20432;-82
2023/03/01 14:22:13;;;;;;;25.95;22.08;;;;;;;;;;5016344;28;20389;-81
2023/03/01 14:24:41;;;;;;;25.30;21.30;;;;;;;;;;5017595;28;20396;-81
2023/03/01 14:27:12;;;;;;;27.73;21.75;;;;;;;;;;5015581;28;20851;-82